createdAt,value
2023-03-20T00:00:09.178Z,16.00
2023-03-20T00:00:37.021Z,16.45
2023-03-20T00:01:12.004Z,15.52
2023-03-20T00:01:30.008Z,15.13
2023-03-20T00:01:43.986Z,15.68
2023-03-20T00:01:56.859Z,15.70
2023-03-20T00:02:19.849Z,15.63
2023-03-20T00:02:32.492Z,15.98
2023-03-20T00:02:45.214Z,16.05
2023-03-20T00:02:58.266Z,15.45
2023-03-20T00:03:11.786Z,15.48
2023-03-20T00:03:25.462Z,15.70
2023-03-20T00:03:38.118Z,16.10
2023-03-20T00:03:51.690Z,16.15
2023-03-20T00:04:04.758Z,15.82
2023-03-20T00:04:17.498Z,15.52
2023-03-20T00:04:30.527Z,15.45
2023-03-20T00:04:43.249Z,16.08
2023-03-20T00:04:55.965Z,15.85
2023-03-20T00:05:18.908Z,15.55
2023-03-20T00:05:32.076Z,15.90
2023-03-20T00:05:44.976Z,15.90
2023-03-20T00:05:57.574Z,15.88
2023-03-20T00:06:16.563Z,15.82
2023-03-20T00:06:30.229Z,16.20
2023-03-20T00:06:42.843Z,16.45
2023-03-20T00:06:55.682Z,15.88
2023-03-20T00:07:12.539Z,15.60
2023-03-20T00:07:25.826Z,16.10
2023-03-20T00:07:38.710Z,15.93
2023-03-20T00:07:51.697Z,15.32
2023-03-20T00:08:05.831Z,15.15
2023-03-20T00:08:19.341Z,15.15
2023-03-20T00:08:32.537Z,15.32
2023-03-20T00:08:48.593Z,15.55
2023-03-20T00:09:07.465Z,15.65
2023-03-20T00:09:20.309Z,15.85
2023-03-20T00:09:33.956Z,15.52
2023-03-20T00:09:47.846Z,15.40
2023-03-20T00:10:01.200Z,15.68
2023-03-20T00:10:14.202Z,15.80
2023-03-20T00:10:37.079Z,15.88
2023-03-20T00:10:49.672Z,15.85
2023-03-20T00:11:03.353Z,15.95
2023-03-20T00:11:28.920Z,15.75
2023-03-20T00:11:48.242Z,15.20
2023-03-20T00:12:01.422Z,16.02
2023-03-20T00:12:16.259Z,16.17
2023-03-20T00:12:28.884Z,15.73
2023-03-20T00:12:43.816Z,15.32
2023-03-20T00:12:57.436Z,15.30
2023-03-20T00:13:14.933Z,15.50
2023-03-20T00:13:28.506Z,15.77
2023-03-20T00:13:41.373Z,15.77
2023-03-20T00:13:56.186Z,15.82
2023-03-20T00:14:13.139Z,15.98
2023-03-20T00:14:26.378Z,16.13
2023-03-20T00:14:39.066Z,15.88
2023-03-20T00:14:51.850Z,15.57
2023-03-20T00:15:17.585Z,15.90
2023-03-20T00:15:33.332Z,15.60
2023-03-20T00:15:46.427Z,15.63
2023-03-20T00:15:59.134Z,15.60
2023-03-20T00:16:12.465Z,15.65
2023-03-20T00:16:29.910Z,15.60
2023-03-20T00:16:44.568Z,15.60
2023-03-20T00:16:57.552Z,15.85
2023-03-20T00:17:18.325Z,15.63
2023-03-20T00:17:31.070Z,15.68
2023-03-20T00:17:43.746Z,15.88
2023-03-20T00:17:56.724Z,15.57
2023-03-20T00:18:15.598Z,15.23
2023-03-20T00:18:29.210Z,15.43
2023-03-20T00:18:41.992Z,15.77
2023-03-20T00:18:56.424Z,15.88
2023-03-20T00:19:16.509Z,15.52
2023-03-20T00:19:31.015Z,15.25
2023-03-20T00:19:43.957Z,15.48
2023-03-20T00:19:56.654Z,15.93
2023-03-20T00:20:15.629Z,15.52
2023-03-20T00:20:31.570Z,15.55
2023-03-20T00:20:44.889Z,15.75
2023-03-20T00:20:57.473Z,15.57
2023-03-20T00:21:16.288Z,15.48
2023-03-20T00:21:29.212Z,15.52
2023-03-20T00:21:41.877Z,15.63
2023-03-20T00:21:56.823Z,15.60
2023-03-20T00:22:10.484Z,15.48
2023-03-20T00:22:23.126Z,15.82
2023-03-20T00:22:35.716Z,16.10
2023-03-20T00:22:48.996Z,15.73
2023-03-20T00:23:03.820Z,15.52
2023-03-20T00:23:17.009Z,15.68
2023-03-20T00:23:29.892Z,15.57
2023-03-20T00:23:42.637Z,15.23
2023-03-20T00:23:56.998Z,15.38
2023-03-20T00:24:09.621Z,15.52
2023-03-20T00:24:24.515Z,15.43
2023-03-20T00:24:37.109Z,15.35
2023-03-20T00:24:49.828Z,15.27
2023-03-20T00:25:02.443Z,15.25
2023-03-20T00:25:16.446Z,15.18
2023-03-20T00:25:29.276Z,15.02
2023-03-20T00:25:44.780Z,15.38
2023-03-20T00:25:57.507Z,15.50
2023-03-20T00:26:12.748Z,15.27
2023-03-20T00:26:28.361Z,15.00
2023-03-20T00:26:41.529Z,15.07
2023-03-20T00:26:54.576Z,15.45
2023-03-20T00:27:07.525Z,15.48
2023-03-20T00:27:20.483Z,15.18
2023-03-20T00:27:33.126Z,15.10
2023-03-20T00:27:47.363Z,15.55
2023-03-20T00:28:00.133Z,15.40
2023-03-20T00:28:31.105Z,15.77
2023-03-20T00:28:46.285Z,15.02
2023-03-20T00:28:59.232Z,15.05
2023-03-20T00:29:21.511Z,15.00
2023-03-20T00:29:34.656Z,15.50
2023-03-20T00:29:47.689Z,15.27
2023-03-20T00:30:00.543Z,14.70
2023-03-20T00:30:22.464Z,14.75
2023-03-20T00:30:36.046Z,15.50
2023-03-20T00:30:48.707Z,15.40
2023-03-20T00:31:01.453Z,14.90
2023-03-20T00:31:24.725Z,14.93
2023-03-20T00:31:39.596Z,14.82
2023-03-20T00:31:53.347Z,15.35
2023-03-20T00:32:07.186Z,15.80
2023-03-20T00:32:19.801Z,15.55
2023-03-20T00:32:32.771Z,15.43
2023-03-20T00:32:45.556Z,14.90
2023-03-20T00:32:59.014Z,14.85
2023-03-20T00:33:11.721Z,15.18
2023-03-20T00:33:27.085Z,15.75
2023-03-20T00:33:39.947Z,15.40
2023-03-20T00:33:53.546Z,15.23
2023-03-20T00:34:12.248Z,15.52
2023-03-20T00:34:29.732Z,15.73
2023-03-20T00:34:42.553Z,15.75
2023-03-20T00:34:56.462Z,15.95
2023-03-20T00:35:18.783Z,15.38
2023-03-20T00:35:32.119Z,14.57
2023-03-20T00:35:44.784Z,14.65
2023-03-20T00:35:59.074Z,14.90
2023-03-20T00:36:11.767Z,14.88
2023-03-20T00:36:25.970Z,14.80
2023-03-20T00:36:38.683Z,15.13
2023-03-20T00:36:51.749Z,14.98
2023-03-20T00:37:04.633Z,15.15
2023-03-20T00:37:17.224Z,15.18
2023-03-20T00:37:29.857Z,15.10
2023-03-20T00:37:42.489Z,14.88
2023-03-20T00:37:57.033Z,14.80
2023-03-20T00:38:09.651Z,15.35
2023-03-20T00:38:22.253Z,15.50
2023-03-20T00:38:34.863Z,15.10
2023-03-20T00:38:47.730Z,15.10
2023-03-20T00:39:02.989Z,15.10
2023-03-20T00:39:15.846Z,15.00
2023-03-20T00:39:29.457Z,14.70
2023-03-20T00:39:42.121Z,15.65
2023-03-20T00:39:54.766Z,15.63
2023-03-20T00:40:09.148Z,15.32
2023-03-20T00:40:22.422Z,14.88
2023-03-20T00:40:35.308Z,14.65
2023-03-20T00:40:47.928Z,14.80
2023-03-20T00:41:00.571Z,15.25
2023-03-20T00:41:24.710Z,15.55
2023-03-20T00:41:43.970Z,14.75
2023-03-20T00:41:58.379Z,14.90
2023-03-20T00:42:19.900Z,15.18
2023-03-20T00:42:32.867Z,15.25
2023-03-20T00:42:48.838Z,15.20
2023-03-20T00:43:03.349Z,14.98
2023-03-20T00:43:16.249Z,14.68
2023-03-20T00:43:29.161Z,15.02
2023-03-20T00:43:41.843Z,15.35
2023-03-20T00:43:58.158Z,15.60
2023-03-20T00:44:21.844Z,15.48
2023-03-20T00:44:37.044Z,14.25
2023-03-20T00:44:54.077Z,15.00
2023-03-20T00:45:13.024Z,15.32
2023-03-20T00:45:27.364Z,14.82
2023-03-20T00:45:40.031Z,15.20
2023-03-20T00:45:52.876Z,15.05
2023-03-20T00:46:08.392Z,15.02
2023-03-20T00:46:21.323Z,15.35
2023-03-20T00:46:38.812Z,15.15
2023-03-20T00:46:55.530Z,14.90
2023-03-20T00:47:13.821Z,14.88
2023-03-20T00:47:27.297Z,14.90
2023-03-20T00:47:41.476Z,14.82
2023-03-20T00:47:54.603Z,14.85
2023-03-20T00:48:14.292Z,14.82
2023-03-20T00:48:26.914Z,15.07
2023-03-20T00:48:41.591Z,14.75
2023-03-20T00:48:54.981Z,14.35
2023-03-20T00:49:10.339Z,14.23
2023-03-20T00:49:26.514Z,14.48
2023-03-20T00:49:39.190Z,14.88
2023-03-20T00:49:56.056Z,14.98
2023-03-20T00:50:16.045Z,14.90
2023-03-20T00:50:30.882Z,14.98
2023-03-20T00:50:45.011Z,15.20
2023-03-20T00:50:58.859Z,14.90
2023-03-20T00:51:11.432Z,14.73
2023-03-20T00:51:24.047Z,14.85
2023-03-20T00:51:38.196Z,14.93
2023-03-20T00:51:51.075Z,14.85
2023-03-20T00:52:05.146Z,15.05
2023-03-20T00:52:18.375Z,14.98
2023-03-20T00:52:30.957Z,14.55
2023-03-20T00:52:45.276Z,14.32
2023-03-20T00:52:59.353Z,14.50
2023-03-20T00:53:12.484Z,14.90
2023-03-20T00:53:25.101Z,14.80
2023-03-20T00:53:37.758Z,14.98
2023-03-20T00:53:50.318Z,15.18
2023-03-20T00:54:07.444Z,15.20
2023-03-20T00:54:20.133Z,15.00
2023-03-20T00:54:33.096Z,14.80
2023-03-20T00:54:45.723Z,14.60
2023-03-20T00:54:58.374Z,14.52
2023-03-20T00:55:11.201Z,14.52
2023-03-20T00:55:27.165Z,14.52
2023-03-20T00:55:40.924Z,15.10
2023-03-20T00:55:53.560Z,15.20
2023-03-20T00:56:07.216Z,14.80
2023-03-20T00:56:32.569Z,14.40
2023-03-20T00:56:50.901Z,13.75
2023-03-20T00:57:08.386Z,14.27
2023-03-20T00:57:24.538Z,14.68
2023-03-20T00:57:41.271Z,14.35
2023-03-20T00:57:56.297Z,14.45
2023-03-20T00:58:11.766Z,14.80
2023-03-20T00:58:25.488Z,14.30
2023-03-20T00:58:38.833Z,14.43
2023-03-20T00:58:51.627Z,14.85
2023-03-20T00:59:05.097Z,14.77
2023-03-20T00:59:20.746Z,14.73
2023-03-20T00:59:36.921Z,14.93
2023-03-20T00:59:54.660Z,14.65
2023-03-20T01:00:15.371Z,14.75
2023-03-20T01:00:38.013Z,14.85
2023-03-20T01:00:50.778Z,14.70
2023-03-20T01:01:03.661Z,14.95
2023-03-20T01:01:16.397Z,14.35
2023-03-20T01:01:31.042Z,14.13
2023-03-20T01:01:43.959Z,14.73
2023-03-20T01:01:56.694Z,14.93
2023-03-20T01:02:11.784Z,14.82
2023-03-20T01:02:29.029Z,14.90
2023-03-20T01:02:41.993Z,14.80
2023-03-20T01:02:59.068Z,15.00
2023-03-20T01:03:15.937Z,15.18
2023-03-20T01:03:30.171Z,15.00
2023-03-20T01:03:42.849Z,14.60
2023-03-20T01:03:55.718Z,14.55
2023-03-20T01:04:11.678Z,14.90
2023-03-20T01:04:24.518Z,14.40
2023-03-20T01:04:40.162Z,14.35
2023-03-20T01:04:52.848Z,14.80
2023-03-20T01:05:06.091Z,14.60
2023-03-20T01:05:18.989Z,14.55
2023-03-20T01:05:31.626Z,14.35
2023-03-20T01:05:45.113Z,14.68
2023-03-20T01:05:58.765Z,14.68
2023-03-20T01:06:13.104Z,14.55
2023-03-20T01:06:25.878Z,14.70
2023-03-20T01:06:38.490Z,14.65
2023-03-20T01:06:51.146Z,14.45
2023-03-20T01:07:04.949Z,14.32
2023-03-20T01:07:18.597Z,14.45
2023-03-20T01:07:31.440Z,14.70
2023-03-20T01:07:45.992Z,14.25
2023-03-20T01:07:58.673Z,14.35
2023-03-20T01:08:16.349Z,14.63
2023-03-20T01:08:29.017Z,14.15
2023-03-20T01:08:41.645Z,14.32
2023-03-20T01:08:57.733Z,14.27
2023-03-20T01:09:11.913Z,14.13
2023-03-20T01:09:25.565Z,14.25
2023-03-20T01:09:38.267Z,14.32
2023-03-20T01:09:51.172Z,14.20
2023-03-20T01:10:04.406Z,14.15
2023-03-20T01:10:17.971Z,14.05
2023-03-20T01:10:32.623Z,13.98
2023-03-20T01:10:46.792Z,14.30
2023-03-20T01:11:00.597Z,14.43
2023-03-20T01:11:13.936Z,14.32
2023-03-20T01:11:26.583Z,14.27
2023-03-20T01:11:41.109Z,14.52
2023-03-20T01:11:54.197Z,14.85
2023-03-20T01:12:08.029Z,15.32
2023-03-20T01:12:20.697Z,15.25
2023-03-20T01:12:33.474Z,15.05
2023-03-20T01:12:48.501Z,14.70
2023-03-20T01:13:02.003Z,14.10
2023-03-20T01:13:20.525Z,14.07
2023-03-20T01:13:33.592Z,14.60
2023-03-20T01:13:46.326Z,14.70
2023-03-20T01:13:59.068Z,14.63
2023-03-20T01:14:15.756Z,14.85
2023-03-20T01:14:28.603Z,15.18
2023-03-20T01:14:41.540Z,14.98
2023-03-20T01:14:57.208Z,14.90
2023-03-20T01:15:20.768Z,14.65
2023-03-20T01:15:34.596Z,14.70
2023-03-20T01:15:49.147Z,14.90
2023-03-20T01:16:01.822Z,14.40
2023-03-20T01:16:21.848Z,14.15
2023-03-20T01:16:34.574Z,14.60
2023-03-20T01:16:47.248Z,15.13
2023-03-20T01:17:00.439Z,14.85
2023-03-20T01:17:19.441Z,14.45
2023-03-20T01:17:33.064Z,14.68
2023-03-20T01:17:45.846Z,14.80
2023-03-20T01:17:59.008Z,14.85
2023-03-20T01:18:13.761Z,14.98
2023-03-20T01:18:27.896Z,15.18
2023-03-20T01:18:40.549Z,15.13
2023-03-20T01:18:54.196Z,14.57
2023-03-20T01:19:07.962Z,14.45
2023-03-20T01:19:20.803Z,14.73
2023-03-20T01:19:33.416Z,14.65
2023-03-20T01:19:46.063Z,14.75
2023-03-20T01:19:58.676Z,14.52
2023-03-20T01:20:16.023Z,13.98
2023-03-20T01:20:31.425Z,14.05
2023-03-20T01:20:44.511Z,14.57
2023-03-20T01:20:57.170Z,14.93
2023-03-20T01:21:09.935Z,14.93
2023-03-20T01:21:22.604Z,14.70
2023-03-20T01:21:35.327Z,14.73
2023-03-20T01:21:48.211Z,14.90
2023-03-20T01:22:02.831Z,15.00
2023-03-20T01:22:17.828Z,14.57
2023-03-20T01:22:30.644Z,14.48
2023-03-20T01:22:43.455Z,14.65
2023-03-20T01:22:56.585Z,14.77
2023-03-20T01:23:09.477Z,14.70
2023-03-20T01:23:24.573Z,14.95
2023-03-20T01:23:37.214Z,14.98
2023-03-20T01:23:50.731Z,15.18
2023-03-20T01:24:03.452Z,15.02
2023-03-20T01:24:17.549Z,14.82
2023-03-20T01:24:30.541Z,14.93
2023-03-20T01:24:43.155Z,15.20
2023-03-20T01:24:55.834Z,14.98
2023-03-20T01:25:10.375Z,14.45
2023-03-20T01:25:23.225Z,14.60
2023-03-20T01:25:37.009Z,14.75
2023-03-20T01:25:50.118Z,14.70
2023-03-20T01:26:03.027Z,14.32
2023-03-20T01:26:23.149Z,14.77
2023-03-20T01:26:37.955Z,14.77
2023-03-20T01:26:52.753Z,14.43
2023-03-20T01:27:11.904Z,14.27
2023-03-20T01:27:24.588Z,14.15
2023-03-20T01:27:37.549Z,14.38
2023-03-20T01:27:51.613Z,14.90
2023-03-20T01:28:14.839Z,15.00
2023-03-20T01:28:29.119Z,14.40
2023-03-20T01:28:41.790Z,14.20
2023-03-20T01:28:54.418Z,14.57
2023-03-20T01:29:18.748Z,15.13
2023-03-20T01:29:31.893Z,15.20
2023-03-20T01:29:46.728Z,14.82
2023-03-20T01:29:59.392Z,14.68
2023-03-20T01:30:21.782Z,14.52
2023-03-20T01:30:34.412Z,14.68
2023-03-20T01:30:47.882Z,14.85
2023-03-20T01:31:00.717Z,15.00
2023-03-20T01:31:18.920Z,15.00
2023-03-20T01:31:31.803Z,15.13
2023-03-20T01:31:44.941Z,14.95
2023-03-20T01:31:57.599Z,14.60
2023-03-20T01:32:13.170Z,15.10
2023-03-20T01:32:26.193Z,15.98
2023-03-20T01:32:38.842Z,15.55
2023-03-20T01:32:52.229Z,15.15
2023-03-20T01:33:14.622Z,15.60
2023-03-20T01:33:29.482Z,15.07
2023-03-20T01:33:42.189Z,14.88
2023-03-20T01:33:54.835Z,14.95
2023-03-20T01:34:10.241Z,15.43
2023-03-20T01:34:23.544Z,15.10
2023-03-20T01:34:36.159Z,14.80
2023-03-20T01:34:49.065Z,15.00
2023-03-20T01:35:02.725Z,15.10
2023-03-20T01:35:17.808Z,14.70
2023-03-20T01:35:30.535Z,14.55
2023-03-20T01:35:44.024Z,14.75
2023-03-20T01:35:57.561Z,15.10
2023-03-20T01:36:11.906Z,15.50
2023-03-20T01:36:25.868Z,15.32
2023-03-20T01:36:38.999Z,15.40
2023-03-20T01:36:53.748Z,15.18
2023-03-20T01:37:13.804Z,15.10
2023-03-20T01:37:28.318Z,15.38
2023-03-20T01:37:41.517Z,15.10
2023-03-20T01:37:56.351Z,15.05
2023-03-20T01:38:14.002Z,14.68
2023-03-20T01:38:28.265Z,14.60
2023-03-20T01:38:41.699Z,14.95
2023-03-20T01:38:56.315Z,14.70
2023-03-20T01:39:10.608Z,14.90
2023-03-20T01:39:32.915Z,15.32
2023-03-20T01:39:46.710Z,14.75
2023-03-20T01:39:59.349Z,14.63
2023-03-20T01:40:25.627Z,14.70
2023-03-20T01:40:47.436Z,15.10
2023-03-20T01:41:04.166Z,14.55
2023-03-20T01:41:19.112Z,14.77
2023-03-20T01:41:32.797Z,15.52
2023-03-20T01:41:47.228Z,15.02
2023-03-20T01:42:01.032Z,14.88
2023-03-20T01:42:15.786Z,15.60
2023-03-20T01:42:28.823Z,15.40
2023-03-20T01:42:41.769Z,15.13
2023-03-20T01:42:55.383Z,15.40
2023-03-20T01:43:14.637Z,15.18
2023-03-20T01:43:28.898Z,14.82
2023-03-20T01:43:42.040Z,14.82
2023-03-20T01:43:54.708Z,15.15
2023-03-20T01:44:19.332Z,15.27
2023-03-20T01:44:35.120Z,15.20
2023-03-20T01:44:48.624Z,15.30
2023-03-20T01:45:01.523Z,15.30
2023-03-20T01:45:19.285Z,15.02
2023-03-20T01:45:36.036Z,14.30
2023-03-20T01:45:57.287Z,14.98
2023-03-20T01:46:18.282Z,15.35
2023-03-20T01:46:32.074Z,15.00
2023-03-20T01:46:45.128Z,15.43
2023-03-20T01:46:58.845Z,15.70
2023-03-20T01:47:18.141Z,15.48
2023-03-20T01:47:31.052Z,15.13
2023-03-20T01:47:43.722Z,14.93
2023-03-20T01:47:58.841Z,15.00
2023-03-20T01:48:16.702Z,15.00
2023-03-20T01:48:56.102Z,14.43
2023-03-20T01:49:48.522Z,14.57
2023-03-20T01:50:22.686Z,14.77
2023-03-20T01:50:35.585Z,14.85
2023-03-20T01:50:48.672Z,14.85
2023-03-20T01:51:02.272Z,15.18
2023-03-20T01:51:14.837Z,15.10
2023-03-20T01:51:28.766Z,14.85
2023-03-20T01:51:41.340Z,14.88
2023-03-20T01:51:56.429Z,15.07
2023-03-20T01:52:09.101Z,15.18
2023-03-20T01:52:21.833Z,15.30
2023-03-20T01:52:34.484Z,15.57
2023-03-20T01:52:49.216Z,15.35
2023-03-20T01:53:11.519Z,14.77
2023-03-20T01:53:27.566Z,14.70
2023-03-20T01:53:40.282Z,14.65
2023-03-20T01:53:57.678Z,14.80
2023-03-20T01:54:14.808Z,14.50
2023-03-20T01:54:31.035Z,14.85
2023-03-20T01:54:43.714Z,15.43
2023-03-20T01:54:57.530Z,15.30
2023-03-20T01:55:10.409Z,14.93
2023-03-20T01:55:23.303Z,15.00
2023-03-20T01:55:38.763Z,15.05
2023-03-20T01:55:56.234Z,14.95
2023-03-20T01:56:09.978Z,14.82
2023-03-20T01:56:22.608Z,14.70
2023-03-20T01:56:39.255Z,14.50
2023-03-20T01:56:57.935Z,14.65
2023-03-20T01:57:15.093Z,14.77
2023-03-20T01:57:28.055Z,14.98
2023-03-20T01:57:41.170Z,14.95
2023-03-20T01:57:57.356Z,14.85
2023-03-20T01:58:14.754Z,14.82
2023-03-20T01:58:33.537Z,14.82
2023-03-20T01:58:51.744Z,15.05
2023-03-20T01:59:10.318Z,14.88
2023-03-20T01:59:28.133Z,14.82
2023-03-20T01:59:45.802Z,14.90
2023-03-20T02:00:02.541Z,15.10
2023-03-20T02:00:16.933Z,14.95
2023-03-20T02:00:29.629Z,14.80
2023-03-20T02:00:42.330Z,14.70
2023-03-20T02:00:56.143Z,14.63
2023-03-20T02:01:12.426Z,14.75
2023-03-20T02:01:27.841Z,15.00
2023-03-20T02:01:41.714Z,15.27
2023-03-20T02:01:54.776Z,14.98
2023-03-20T02:02:08.654Z,14.45
2023-03-20T02:02:24.166Z,14.38
2023-03-20T02:02:39.682Z,14.63
2023-03-20T02:02:53.371Z,14.55
2023-03-20T02:03:09.268Z,14.70
2023-03-20T02:03:23.388Z,15.05
2023-03-20T02:03:36.101Z,15.00
2023-03-20T02:03:50.743Z,14.73
2023-03-20T02:04:05.019Z,14.23
2023-03-20T02:04:23.971Z,14.60
2023-03-20T02:04:43.065Z,14.65
2023-03-20T02:05:00.226Z,14.23
2023-03-20T02:05:16.169Z,14.30
2023-03-20T02:05:29.225Z,15.23
2023-03-20T02:05:45.109Z,15.25
2023-03-20T02:05:58.687Z,14.77
2023-03-20T02:06:11.734Z,14.55
2023-03-20T02:06:26.112Z,14.27
2023-03-20T02:06:40.336Z,14.85
2023-03-20T02:06:52.995Z,15.02
2023-03-20T02:07:08.927Z,14.90
2023-03-20T02:07:23.643Z,15.15
2023-03-20T02:07:38.327Z,15.20
2023-03-20T02:08:00.683Z,15.13
2023-03-20T02:08:19.421Z,14.40
2023-03-20T02:08:37.078Z,14.60
2023-03-20T02:08:51.543Z,14.55
2023-03-20T02:09:04.848Z,14.25
2023-03-20T02:09:17.848Z,14.23
2023-03-20T02:09:32.793Z,14.50
2023-03-20T02:09:47.296Z,14.73
2023-03-20T02:10:00.039Z,14.65
2023-03-20T02:10:16.441Z,14.55
2023-03-20T02:10:29.189Z,14.00
2023-03-20T02:10:42.353Z,14.40
2023-03-20T02:10:56.006Z,14.35
2023-03-20T02:11:09.858Z,14.38
2023-03-20T02:11:24.413Z,14.52
2023-03-20T02:11:38.428Z,14.55
2023-03-20T02:11:52.303Z,14.88
2023-03-20T02:12:05.995Z,14.90
2023-03-20T02:12:20.422Z,14.43
2023-03-20T02:12:34.945Z,13.93
2023-03-20T02:12:48.281Z,14.18
2023-03-20T02:13:04.264Z,14.27
2023-03-20T02:13:17.484Z,14.73
2023-03-20T02:13:31.551Z,14.95
2023-03-20T02:13:45.001Z,14.95
2023-03-20T02:14:00.680Z,14.85
2023-03-20T02:14:14.828Z,14.73
2023-03-20T02:14:28.421Z,14.70
2023-03-20T02:14:41.402Z,14.63
2023-03-20T02:14:54.420Z,14.25
2023-03-20T02:15:08.855Z,14.05
2023-03-20T02:15:21.615Z,14.43
2023-03-20T02:15:36.026Z,14.60
2023-03-20T02:16:02.857Z,14.82
2023-03-20T02:16:17.950Z,14.80
2023-03-20T02:16:30.735Z,14.50
2023-03-20T02:16:43.487Z,14.55
2023-03-20T02:16:56.268Z,14.40
2023-03-20T02:17:10.729Z,14.25
2023-03-20T02:17:23.497Z,14.23
2023-03-20T02:17:36.177Z,14.45
2023-03-20T02:17:48.823Z,14.60
2023-03-20T02:18:02.546Z,14.45
2023-03-20T02:18:15.457Z,14.10
2023-03-20T02:18:28.759Z,13.93
2023-03-20T02:18:44.167Z,14.30
2023-03-20T02:18:58.436Z,14.90
2023-03-20T02:19:22.076Z,14.50
2023-03-20T02:19:48.369Z,14.70
2023-03-20T02:20:13.492Z,14.80
2023-03-20T02:20:43.959Z,14.88
2023-03-20T02:21:39.692Z,14.88
2023-03-20T02:22:27.180Z,14.75
2023-03-20T02:23:09.227Z,14.77
2023-03-20T02:23:53.183Z,14.70
2023-03-20T02:25:03.432Z,14.70
2023-03-20T02:25:45.466Z,15.00
2023-03-20T02:26:22.526Z,14.95
2023-03-20T02:26:53.447Z,14.68
2023-03-20T02:27:15.282Z,14.52
2023-03-20T02:27:38.730Z,14.93
2023-03-20T02:28:17.343Z,14.57
2023-03-20T02:29:04.369Z,14.48
2023-03-20T02:29:48.565Z,14.40
2023-03-20T02:30:40.448Z,14.98
2023-03-20T02:31:13.040Z,15.35
2023-03-20T02:31:45.330Z,14.48
2023-03-20T02:32:37.070Z,14.98
2023-03-20T02:33:17.034Z,14.90
2023-03-20T02:34:12.038Z,14.68
2023-03-20T02:34:57.043Z,15.05
2023-03-20T02:35:46.891Z,14.30
2023-03-20T02:36:23.936Z,15.00
2023-03-20T02:36:59.054Z,14.75
2023-03-20T02:37:37.327Z,15.13
2023-03-20T02:38:15.694Z,15.32
2023-03-20T02:38:55.473Z,14.00
2023-03-20T02:39:24.474Z,14.55
2023-03-20T02:39:51.433Z,14.65
2023-03-20T02:40:16.372Z,14.60
2023-03-20T02:40:37.382Z,14.60
2023-03-20T02:41:00.117Z,14.75
2023-03-20T02:41:21.118Z,14.48
2023-03-20T02:41:40.043Z,13.85
2023-03-20T02:42:01.636Z,14.63
2023-03-20T02:42:22.372Z,15.18
2023-03-20T02:42:44.772Z,15.40
2023-03-20T02:43:05.676Z,14.95
2023-03-20T02:43:23.201Z,15.32
2023-03-20T02:43:45.288Z,15.45
2023-03-20T02:44:06.537Z,14.60
2023-03-20T02:44:25.502Z,14.60
2023-03-20T02:44:45.982Z,15.07
2023-03-20T02:45:08.275Z,14.82
2023-03-20T02:45:28.558Z,14.88
2023-03-20T02:45:49.796Z,14.57
2023-03-20T02:46:12.014Z,14.68
2023-03-20T02:46:35.774Z,15.55
2023-03-20T02:46:57.649Z,14.73
2023-03-20T02:47:18.197Z,14.88
2023-03-20T02:47:37.560Z,14.95
2023-03-20T02:47:57.437Z,14.90
2023-03-20T02:48:16.536Z,15.27
2023-03-20T02:48:41.127Z,15.10
2023-03-20T02:48:58.214Z,14.75
2023-03-20T02:49:23.412Z,14.77
2023-03-20T02:49:52.222Z,14.50
2023-03-20T02:50:17.828Z,14.85
2023-03-20T02:50:37.699Z,14.90
2023-03-20T02:50:53.309Z,15.23
2023-03-20T02:51:14.785Z,15.15
2023-03-20T02:51:37.828Z,15.07
2023-03-20T02:51:58.919Z,15.07
2023-03-20T02:52:16.928Z,14.75
2023-03-20T02:52:40.718Z,14.80
2023-03-20T02:53:06.666Z,15.13
2023-03-20T02:53:31.688Z,15.00
2023-03-20T02:53:53.062Z,15.23
2023-03-20T02:54:11.997Z,14.95
2023-03-20T02:54:32.305Z,15.00
2023-03-20T02:54:53.807Z,14.63
2023-03-20T02:55:18.086Z,14.77
2023-03-20T02:55:40.110Z,14.43
2023-03-20T02:56:03.204Z,14.13
2023-03-20T02:56:23.340Z,14.82
2023-03-20T02:56:44.928Z,14.90
2023-03-20T02:57:06.047Z,15.20
2023-03-20T02:57:23.493Z,14.48
2023-03-20T02:57:44.349Z,14.85
2023-03-20T02:58:07.628Z,14.43
2023-03-20T02:58:24.200Z,14.70
2023-03-20T02:58:44.663Z,14.52
2023-03-20T02:59:07.290Z,14.70
2023-03-20T02:59:26.883Z,14.43
2023-03-20T02:59:46.479Z,14.32
2023-03-20T03:00:09.838Z,14.57
2023-03-20T03:00:30.295Z,14.63
2023-03-20T03:00:50.235Z,15.05
2023-03-20T03:01:08.286Z,14.75
2023-03-20T03:01:28.096Z,14.45
2023-03-20T03:01:44.038Z,14.65
2023-03-20T03:02:05.328Z,15.02
2023-03-20T03:02:23.959Z,14.77
2023-03-20T03:02:39.491Z,15.05
2023-03-20T03:02:58.463Z,14.80
2023-03-20T03:03:17.234Z,14.95
2023-03-20T03:03:38.337Z,15.18
2023-03-20T03:03:54.730Z,15.45
2023-03-20T03:04:14.403Z,15.13
2023-03-20T03:04:30.337Z,15.13
2023-03-20T03:04:48.726Z,15.10
2023-03-20T03:05:08.188Z,15.02
2023-03-20T03:05:24.730Z,14.60
2023-03-20T03:05:42.661Z,14.88
2023-03-20T03:06:00.496Z,15.15
2023-03-20T03:06:21.031Z,14.65
2023-03-20T03:06:37.750Z,14.73
2023-03-20T03:06:55.911Z,15.13
2023-03-20T03:07:12.433Z,15.40
2023-03-20T03:07:28.921Z,15.07
2023-03-20T03:07:47.079Z,14.63
2023-03-20T03:08:03.672Z,15.02
2023-03-20T03:08:18.932Z,15.38
2023-03-20T03:08:36.367Z,15.23
2023-03-20T03:08:54.524Z,14.68
2023-03-20T03:09:12.736Z,14.63
2023-03-20T03:09:30.840Z,14.80
2023-03-20T03:09:50.298Z,15.02
2023-03-20T03:10:08.249Z,15.40
2023-03-20T03:10:24.534Z,15.10
2023-03-20T03:10:42.081Z,14.98
2023-03-20T03:10:59.006Z,14.93
2023-03-20T03:11:12.831Z,15.05
2023-03-20T03:11:26.530Z,15.23
2023-03-20T03:11:44.904Z,15.05
2023-03-20T03:12:03.241Z,15.02
2023-03-20T03:12:19.982Z,15.13
2023-03-20T03:12:38.078Z,14.57
2023-03-20T03:12:53.506Z,14.50
2023-03-20T03:13:12.437Z,14.70
2023-03-20T03:13:29.253Z,14.70
2023-03-20T03:13:46.970Z,14.85
2023-03-20T03:14:00.492Z,14.95
2023-03-20T03:14:19.668Z,15.00
2023-03-20T03:14:38.480Z,15.00
2023-03-20T03:14:54.681Z,15.18
2023-03-20T03:15:16.318Z,15.38
2023-03-20T03:15:34.859Z,15.20
2023-03-20T03:15:51.499Z,15.30
2023-03-20T03:16:09.097Z,14.98
2023-03-20T03:16:28.110Z,14.80
2023-03-20T03:16:41.569Z,15.18
2023-03-20T03:16:55.973Z,15.18
2023-03-20T03:17:10.576Z,15.30
2023-03-20T03:17:26.606Z,15.43
2023-03-20T03:17:41.473Z,14.90
2023-03-20T03:17:58.243Z,14.63
2023-03-20T03:18:16.235Z,14.85
2023-03-20T03:18:32.262Z,15.32
2023-03-20T03:18:46.602Z,15.43
2023-03-20T03:19:06.552Z,15.13
2023-03-20T03:19:24.273Z,15.27
2023-03-20T03:19:39.844Z,14.75
2023-03-20T03:19:59.205Z,14.82
2023-03-20T03:20:21.394Z,15.45
2023-03-20T03:20:37.616Z,15.50
2023-03-20T03:20:55.669Z,15.20
2023-03-20T03:21:11.484Z,15.18
2023-03-20T03:21:24.126Z,15.05
2023-03-20T03:21:40.487Z,15.02
2023-03-20T03:21:53.234Z,15.35
2023-03-20T03:22:06.380Z,15.30
2023-03-20T03:22:20.134Z,15.38
2023-03-20T03:22:34.454Z,15.50
2023-03-20T03:22:49.740Z,14.98
2023-03-20T03:23:03.529Z,14.82
2023-03-20T03:23:23.491Z,14.85
2023-03-20T03:23:43.230Z,14.95
2023-03-20T03:23:56.374Z,15.73
2023-03-20T03:24:37.218Z,15.68
2023-03-20T03:24:55.352Z,15.73
2023-03-20T03:25:12.581Z,15.75
2023-03-20T03:25:28.076Z,15.48
2023-03-20T03:25:41.986Z,14.95
2023-03-20T03:25:57.652Z,15.18
2023-03-20T03:26:14.814Z,15.60
2023-03-20T03:26:33.916Z,15.63
2023-03-20T03:26:47.243Z,15.80
2023-03-20T03:27:02.476Z,15.77
2023-03-20T03:27:19.921Z,15.43
2023-03-20T03:27:36.648Z,15.40
2023-03-20T03:27:55.940Z,15.30
2023-03-20T03:28:22.328Z,14.95
2023-03-20T03:28:39.965Z,15.18
2023-03-20T03:28:55.920Z,15.25
2023-03-20T03:29:17.099Z,15.57
2023-03-20T03:29:35.946Z,15.30
2023-03-20T03:29:54.106Z,15.13
2023-03-20T03:30:12.089Z,15.13
2023-03-20T03:30:28.110Z,15.63
2023-03-20T03:30:42.647Z,15.30
2023-03-20T03:30:58.584Z,15.48
2023-03-20T03:31:15.434Z,15.57
2023-03-20T03:31:30.243Z,15.60
2023-03-20T03:31:45.610Z,15.57
2023-03-20T03:31:58.929Z,15.27
2023-03-20T03:32:23.841Z,15.05
2023-03-20T03:32:43.909Z,14.90
2023-03-20T03:33:13.298Z,15.48
2023-03-20T03:33:29.131Z,15.52
2023-03-20T03:33:45.533Z,15.10
2023-03-20T03:34:00.045Z,14.70
2023-03-20T03:34:16.840Z,15.13
2023-03-20T03:34:31.283Z,15.45
2023-03-20T03:34:45.114Z,15.43
2023-03-20T03:34:58.485Z,16.20
2023-03-20T03:35:15.606Z,15.77
2023-03-20T03:35:29.330Z,15.43
2023-03-20T03:35:42.200Z,15.63